sensor_id;sensor_type;location;lat;lon;timestamp;temperature;humidity
71837;DHT22;59686;51.716;7.016;2023-05-20T19:25:49;20.20;65.80
71837;DHT22;59686;51.716;7.016;2023-05-20T19:28:15;20.20;66.00
71837;DHT22;59686;51.716;7.016;2023-05-20T19:30:41;20.20;66.10
71837;DHT22;59686;51.716;7.016;2023-05-20T19:33:06;20.20;66.20
71837;DHT22;59686;51.716;7.016;2023-05-20T19:35:32;20.20;66.30
71837;DHT22;59686;51.716;7.016;2023-05-20T19:37:58;20.20;66.30
71837;DHT22;59686;51.716;7.016;2023-05-20T19:40:24;20.20;66.30
71837;DHT22;59686;51.716;7.016;2023-05-20T19:43:01;20.20;66.50
71837;DHT22;59686;51.716;7.016;2023-05-20T19:45:27;20.20;66.60
71837;DHT22;59686;51.716;7.016;2023-05-20T19:47:53;20.20;66.50
71837;DHT22;59686;51.716;7.016;2023-05-20T19:50:18;20.20;66.60
71837;DHT22;59686;51.716;7.016;2023-05-20T19:52:44;20.20;66.60
71837;DHT22;59686;51.716;7.016;2023-05-20T19:55:09;20.20;66.60
71837;DHT22;59686;51.716;7.016;2023-05-20T19:57:35;20.20;66.70
71837;DHT22;59686;51.716;7.016;2023-05-20T20:00:01;20.20;66.70
71837;DHT22;59686;51.716;7.016;2023-05-20T20:02:26;20.20;66.70
71837;DHT22;59686;51.716;7.016;2023-05-20T20:04:52;20.20;66.70
71837;DHT22;59686;51.716;7.016;2023-05-20T20:07:19;20.20;66.80
71837;DHT22;59686;51.716;7.016;2023-05-20T20:09:46;20.20;66.90
71837;DHT22;59686;51.716;7.016;2023-05-20T20:12:12;20.10;67.00
71837;DHT22;59686;51.716;7.016;2023-05-20T20:14:38;20.20;67.00
71837;DHT22;59686;51.716;7.016;2023-05-20T20:17:03;20.20;67.00
71837;DHT22;59686;51.716;7.016;2023-05-20T20:19:30;20.20;67.10
71837;DHT22;59686;51.716;7.016;2023-05-20T20:21:56;20.20;67.10
71837;DHT22;59686;51.716;7.016;2023-05-20T20:24:22;20.20;67.10
71837;DHT22;59686;51.716;7.016;2023-05-20T20:26:51;20.30;67.20
71837;DHT22;59686;51.716;7.016;2023-05-20T20:29:51;20.30;67.30
71837;DHT22;59686;51.716;7.016;2023-05-20T20:32:17;20.20;67.20
71837;DHT22;59686;51.716;7.016;2023-05-20T20:34:42;20.20;67.30
71837;DHT22;59686;51.716;7.016;2023-05-20T20:37:08;20.20;67.20
71837;DHT22;59686;51.716;7.016;2023-05-20T20:39:34;20.20;67.10
71837;DHT22;59686;51.716;7.016;2023-05-20T20:42:03;20.20;67.10
71837;DHT22;59686;51.716;7.016;2023-05-20T20:44:29;20.20;67.10
71837;DHT22;59686;51.716;7.016;2023-05-20T20:46:57;20.20;67.20
71837;DHT22;59686;51.716;7.016;2023-05-20T20:49:25;20.20;67.30
71837;DHT22;59686;51.716;7.016;2023-05-20T20:51:51;20.20;67.40
71837;DHT22;59686;51.716;7.016;2023-05-20T20:54:18;20.30;67.50
71837;DHT22;59686;51.716;7.016;2023-05-20T20:56:44;20.20;68.10
71837;DHT22;59686;51.716;7.016;2023-05-20T20:59:12;20.20;67.40
71837;DHT22;59686;51.716;7.016;2023-05-20T21:01:38;20.20;67.50
71837;DHT22;59686;51.716;7.016;2023-05-20T21:04:06;20.20;67.40
71837;DHT22;59686;51.716;7.016;2023-05-20T21:06:38;20.20;67.50
71837;DHT22;59686;51.716;7.016;2023-05-20T21:09:05;20.20;67.50
71837;DHT22;59686;51.716;7.016;2023-05-20T21:11:34;20.20;67.40
71837;DHT22;59686;51.716;7.016;2023-05-20T21:14:02;20.20;67.50
71837;DHT22;59686;51.716;7.016;2023-05-20T21:16:28;20.20;67.50
71837;DHT22;59686;51.716;7.016;2023-05-20T21:18:54;20.20;67.60
71837;DHT22;59686;51.716;7.016;2023-05-20T21:21:20;20.20;67.60
71837;DHT22;59686;51.716;7.016;2023-05-20T21:23:46;20.20;67.60
71837;DHT22;59686;51.716;7.016;2023-05-20T21:26:15;20.20;67.60
71837;DHT22;59686;51.716;7.016;2023-05-20T21:28:40;20.20;67.60
71837;DHT22;59686;51.716;7.016;2023-05-20T21:31:06;20.20;67.70
71837;DHT22;59686;51.716;7.016;2023-05-20T21:33:32;20.20;67.70
71837;DHT22;59686;51.716;7.016;2023-05-20T21:35:57;20.10;67.70
71837;DHT22;59686;51.716;7.016;2023-05-20T21:38:23;20.20;67.70
71837;DHT22;59686;51.716;7.016;2023-05-20T21:40:49;20.20;67.70
71837;DHT22;59686;51.716;7.016;2023-05-20T21:43:15;20.20;67.80
71837;DHT22;59686;51.716;7.016;2023-05-20T21:45:40;20.10;67.70
71837;DHT22;59686;51.716;7.016;2023-05-20T21:48:06;20.10;67.80
71837;DHT22;59686;51.716;7.016;2023-05-20T21:50:32;20.10;67.80
71837;DHT22;59686;51.716;7.016;2023-05-20T21:52:57;20.10;67.80
71837;DHT22;59686;51.716;7.016;2023-05-20T21:55:23;20.10;67.80
71837;DHT22;59686;51.716;7.016;2023-05-20T21:57:49;20.10;67.80
71837;DHT22;59686;51.716;7.016;2023-05-20T22:00:15;20.10;67.80
71837;DHT22;59686;51.716;7.016;2023-05-20T22:02:46;20.10;67.90
71837;DHT22;59686;51.716;7.016;2023-05-20T22:05:11;20.10;67.90
71837;DHT22;59686;51.716;7.016;2023-05-20T22:07:37;20.10;67.90
71837;DHT22;59686;51.716;7.016;2023-05-20T22:10:06;20.10;67.90
71837;DHT22;59686;51.716;7.016;2023-05-20T22:12:36;20.10;68.00
71837;DHT22;59686;51.716;7.016;2023-05-20T22:15:03;20.10;68.00
71837;DHT22;59686;51.716;7.016;2023-05-20T22:17:29;20.10;68.00
71837;DHT22;59686;51.716;7.016;2023-05-20T22:19:58;20.10;68.00
71837;DHT22;59686;51.716;7.016;2023-05-20T22:22:26;20.10;68.00
71837;DHT22;59686;51.716;7.016;2023-05-20T22:24:52;20.10;68.00
71837;DHT22;59686;51.716;7.016;2023-05-20T22:27:17;20.00;68.30
71837;DHT22;59686;51.716;7.016;2023-05-20T22:29:43;20.10;68.00
71837;DHT22;59686;51.716;7.016;2023-05-20T22:32:09;20.00;68.00
71837;DHT22;59686;51.716;7.016;2023-05-20T22:34:34;20.00;68.10
71837;DHT22;59686;51.716;7.016;2023-05-20T22:37:00;20.00;68.10
71837;DHT22;59686;51.716;7.016;2023-05-20T22:39:27;20.00;68.10
71837;DHT22;59686;51.716;7.016;2023-05-20T22:41:52;20.00;68.10
71837;DHT22;59686;51.716;7.016;2023-05-20T22:44:18;20.00;68.20
71837;DHT22;59686;51.716;7.016;2023-05-20T22:46:44;19.90;68.10
71837;DHT22;59686;51.716;7.016;2023-05-20T22:49:10;20.00;68.90
71837;DHT22;59686;51.716;7.016;2023-05-20T22:51:37;20.00;68.20
71837;DHT22;59686;51.716;7.016;2023-05-20T22:54:03;20.00;68.20
71837;DHT22;59686;51.716;7.016;2023-05-20T22:56:28;20.00;68.20
71837;DHT22;59686;51.716;7.016;2023-05-20T22:58:57;19.90;68.20
71837;DHT22;59686;51.716;7.016;2023-05-20T23:01:23;19.90;68.20
71837;DHT22;59686;51.716;7.016;2023-05-20T23:03:49;19.90;68.20
71837;DHT22;59686;51.716;7.016;2023-05-20T23:06:16;19.90;68.20
71837;DHT22;59686;51.716;7.016;2023-05-20T23:08:42;19.90;68.20
71837;DHT22;59686;51.716;7.016;2023-05-20T23:11:09;19.90;68.20
71837;DHT22;59686;51.716;7.016;2023-05-20T23:13:35;20.00;68.30
71837;DHT22;59686;51.716;7.016;2023-05-20T23:16:00;19.90;68.20
71837;DHT22;59686;51.716;7.016;2023-05-20T23:18:27;19.90;68.30
71837;DHT22;59686;51.716;7.016;2023-05-20T23:20:53;19.90;68.30
71837;DHT22;59686;51.716;7.016;2023-05-20T23:23:20;19.90;68.30
71837;DHT22;59686;51.716;7.016;2023-05-20T23:25:45;19.90;68.30
71837;DHT22;59686;51.716;7.016;2023-05-20T23:28:11;19.80;68.20
71837;DHT22;59686;51.716;7.016;2023-05-20T23:30:37;19.80;68.30
71837;DHT22;59686;51.716;7.016;2023-05-20T23:33:03;19.80;69.00
71837;DHT22;59686;51.716;7.016;2023-05-20T23:35:28;19.80;68.30
71837;DHT22;59686;51.716;7.016;2023-05-20T23:37:54;19.90;68.30
71837;DHT22;59686;51.716;7.016;2023-05-20T23:40:20;19.90;68.30
71837;DHT22;59686;51.716;7.016;2023-05-20T23:42:45;19.80;68.20
71837;DHT22;59686;51.716;7.016;2023-05-20T23:45:11;19.80;68.20
71837;DHT22;59686;51.716;7.016;2023-05-20T23:47:38;19.80;68.30
71837;DHT22;59686;51.716;7.016;2023-05-20T23:50:04;19.80;68.20
71837;DHT22;59686;51.716;7.016;2023-05-20T23:52:30;19.80;68.20
71837;DHT22;59686;51.716;7.016;2023-05-20T23:54:55;19.80;68.20
71837;DHT22;59686;51.716;7.016;2023-05-20T23:57:21;19.80;68.20
71837;DHT22;59686;51.716;7.016;2023-05-20T23:59:47;19.70;68.20
